Portada
METAR-TAF:

METAR-TAF

Aeroports :

Aeroport Internacional Diori Hamani

Niamey, Níger

latitud: 13-29N, longitud: 002-10E, altitud: 223 m

Observació

L'informe es va fer fa 1 hora i 9 minuts, a les 16:00 UTC
Vent 12 kt del Oest
Temperatura 34°C
Humitat 41%
Pressió 1009 hPa
Visibilitat 10 km o més
Escasses núvols a una alçada de 2000 ft

METAR: DRRN 251600Z 26012KT 9999 FEW020 34/19 Q1009 NOSIG

Hora: 18:09 (17:09 UTC)

Pronòstic

L'informe es va fer fa 6 hores i 9 minuts, a les 11:00 UTC
Pronòstic vàlid del 25 a les 12 UTC al 25 a les 18 UTC
Vent 8 kt del Oest/Sud-Oest
Visibilitat 10 km o més
Núvols disperses a una alçada de 2000 ft
Probabilitat 40% :
Temporalment
l' 25 a les 16 UTC al 25 a les 20 UTC
Visibilitat: 3000 m
Núvols disperses a una alçada de 2500 ft
Escasses núvols a una alçada de 3000 ft, Cumulonimbus.
tempesta, xàfecs de pluja,

TAF: DRRN 251100Z 2512/2518 24008KT 9999 SCT020 PROB40 TEMPO 2516/2520 3000 TS SHRA SCT025 FEW030CB

Observacions i pronòstics meteorològics de més de 4000 aeroports (METAR i TAF).

Les estacions disponibles són els punts grocs i vermells al mapa.

Posi el ratolí al punt desitjat per veure el nom de l'estació.

Feu clic per veure les observacions i els pronòstics meteorològics.

Per canviar el mapa: feu clic els botons verds amb una creu de color negre per apropar; al botó verd amb un guió per allunyar la imatge; o en les fletxes verdes per a mapes adjacents.


METAR-TAF: